createdAt,value
2018-07-23T00:01:26.462Z,22.87
2018-07-23T00:03:55.151Z,22.93
2018-07-23T00:06:23.840Z,22.87
2018-07-23T00:08:52.543Z,22.82
2018-07-23T00:11:21.476Z,22.90
2018-07-23T00:13:50.322Z,22.87
2018-07-23T00:16:19.096Z,22.53
2018-07-23T00:18:47.925Z,21.93
2018-07-23T00:21:16.634Z,22.95
2018-07-23T00:23:45.310Z,22.83
2018-07-23T00:26:14.018Z,22.82
2018-07-23T00:28:42.724Z,22.83
2018-07-23T00:31:11.598Z,22.62
2018-07-23T00:33:40.248Z,22.85
2018-07-23T00:36:08.997Z,22.80
2018-07-23T00:38:37.627Z,25.17
2018-07-23T00:41:06.337Z,24.60
2018-07-23T00:43:35.039Z,25.30
2018-07-23T00:46:03.750Z,25.82
2018-07-23T00:48:32.452Z,25.70
2018-07-23T00:51:01.106Z,26.00
2018-07-23T00:53:29.764Z,25.50
2018-07-23T00:55:58.468Z,25.95
2018-07-23T00:58:27.183Z,26.03
2018-07-23T01:00:55.855Z,26.25
2018-07-23T01:03:24.531Z,26.50
2018-07-23T01:05:53.213Z,26.07
2018-07-23T01:08:21.942Z,26.33
2018-07-23T01:10:50.663Z,27.30
2018-07-23T01:14:48.775Z,27.27
2018-07-23T01:17:17.459Z,28.00
2018-07-23T01:19:46.588Z,27.07
2018-07-23T01:22:15.318Z,29.00
2018-07-23T01:24:43.994Z,29.18
2018-07-23T01:27:12.695Z,29.05
2018-07-23T01:29:41.721Z,29.15
2018-07-23T01:32:10.495Z,29.12
2018-07-23T01:34:39.225Z,28.75
2018-07-23T01:37:08.114Z,30.23
2018-07-23T01:39:36.929Z,29.53
2018-07-23T01:42:06.059Z,29.27
2018-07-23T01:44:35.116Z,29.05
2018-07-23T01:47:03.938Z,29.60
2018-07-23T01:49:32.614Z,29.50
2018-07-23T01:52:01.372Z,31.37
2018-07-23T01:54:30.175Z,30.52
2018-07-23T01:56:59.018Z,31.17
2018-07-23T01:59:27.754Z,32.10
2018-07-23T02:01:56.630Z,33.02
2018-07-23T02:04:25.381Z,32.48
2018-07-23T02:06:54.207Z,32.10
2018-07-23T02:09:22.948Z,32.83
2018-07-23T02:11:51.761Z,33.50
2018-07-23T02:14:20.514Z,32.40
2018-07-23T02:16:49.369Z,33.35
2018-07-23T02:19:18.129Z,33.33
2018-07-23T02:21:46.936Z,35.00
2018-07-23T02:24:15.628Z,34.63
2018-07-23T02:26:44.379Z,33.58
2018-07-23T02:29:13.241Z,35.85
2018-07-23T02:31:42.078Z,34.70
2018-07-23T02:34:10.776Z,33.92
2018-07-23T02:36:39.510Z,35.10
2018-07-23T02:39:09.847Z,34.08
2018-07-23T02:41:38.536Z,34.40
2018-07-23T02:44:07.446Z,33.70
2018-07-23T02:46:36.194Z,33.75
2018-07-23T02:49:04.970Z,35.08
2018-07-23T02:51:33.634Z,36.03
2018-07-23T02:54:02.366Z,34.40
2018-07-23T02:56:31.020Z,35.17
2018-07-23T02:58:59.895Z,36.58
2018-07-23T03:01:28.626Z,35.60
2018-07-23T03:03:57.932Z,36.70
2018-07-23T03:06:28.358Z,35.60
2018-07-23T03:08:57.195Z,35.58
2018-07-23T03:11:26.202Z,36.15
2018-07-23T03:13:54.887Z,36.33
2018-07-23T03:16:24.597Z,36.35
2018-07-23T03:18:53.355Z,37.10
2018-07-23T03:21:22.249Z,35.88
2018-07-23T03:23:51.769Z,37.33
2018-07-23T03:26:20.611Z,38.50
2018-07-23T03:28:49.926Z,37.70
2018-07-23T03:31:18.654Z,37.80
2018-07-23T03:33:47.335Z,39.08
2018-07-23T03:36:16.157Z,37.37
2018-07-23T03:38:44.865Z,38.45
2018-07-23T03:41:13.606Z,39.30
2018-07-23T03:43:42.463Z,39.43
2018-07-23T03:46:11.035Z,36.90
2018-07-23T03:48:39.822Z,40.08
2018-07-23T03:51:08.518Z,38.25
2018-07-23T03:53:37.298Z,39.05
2018-07-23T03:56:06.312Z,41.20
2018-07-23T03:58:35.275Z,39.23
2018-07-23T04:01:03.947Z,39.45
2018-07-23T04:03:32.715Z,38.95
2018-07-23T04:06:01.474Z,38.17
2018-07-23T04:08:30.150Z,39.10
2018-07-23T04:10:58.829Z,38.15
2018-07-23T04:13:27.588Z,38.10
2018-07-23T04:15:56.409Z,38.13
2018-07-23T04:18:29.750Z,38.83
2018-07-23T04:21:02.591Z,40.08
2018-07-23T04:23:31.431Z,39.48
2018-07-23T04:26:00.111Z,39.50
2018-07-23T04:28:30.125Z,40.15
2018-07-23T04:30:58.835Z,38.88
2018-07-23T04:33:27.534Z,40.20
2018-07-23T04:35:56.386Z,39.48
2018-07-23T04:38:25.131Z,39.42
2018-07-23T04:40:53.914Z,39.45
2018-07-23T04:43:23.032Z,40.30
2018-07-23T04:45:51.739Z,39.03
2018-07-23T04:48:20.485Z,39.80
2018-07-23T04:50:49.154Z,41.18
2018-07-23T04:53:17.831Z,42.03
2018-07-23T04:55:46.544Z,41.00
2018-07-23T04:58:15.144Z,42.15
2018-07-23T05:00:43.933Z,41.37
2018-07-23T05:03:12.678Z,42.55
2018-07-23T05:05:41.533Z,40.95
2018-07-23T05:08:10.204Z,42.60
2018-07-23T05:10:38.944Z,41.40
2018-07-23T05:13:07.710Z,41.23
2018-07-23T05:15:36.472Z,40.63
2018-07-23T05:18:05.645Z,41.75
2018-07-23T05:20:34.299Z,41.33
2018-07-23T05:23:02.994Z,41.77
2018-07-23T05:25:31.720Z,42.95
2018-07-23T05:28:00.522Z,43.33
2018-07-23T05:30:29.237Z,41.23
2018-07-23T05:32:57.954Z,42.58
2018-07-23T05:35:26.759Z,41.80
2018-07-23T05:37:57.517Z,43.23
2018-07-23T05:40:26.264Z,41.30
2018-07-23T05:42:54.952Z,42.97
2018-07-23T05:46:53.086Z,42.35
2018-07-23T05:49:21.880Z,42.65
2018-07-23T05:51:50.502Z,42.53
2018-07-23T05:54:19.161Z,40.58
2018-07-23T05:56:47.898Z,42.50
2018-07-23T05:59:16.595Z,41.25
2018-07-23T06:01:45.368Z,41.68
2018-07-23T06:04:14.025Z,39.18
2018-07-23T06:06:42.811Z,39.42
2018-07-23T06:09:11.528Z,38.30
2018-07-23T06:11:40.210Z,39.00
2018-07-23T06:14:08.893Z,38.15
2018-07-23T06:16:39.008Z,38.00
2018-07-23T06:19:07.731Z,37.43
2018-07-23T06:21:36.389Z,37.85
2018-07-23T06:24:05.763Z,37.00
2018-07-23T06:26:35.848Z,36.42
2018-07-23T06:29:04.665Z,36.17
2018-07-23T06:31:37.289Z,34.85
2018-07-23T06:34:10.101Z,34.58
2018-07-23T06:36:45.497Z,33.92
2018-07-23T06:39:14.532Z,34.47
2018-07-23T06:41:43.206Z,34.40
2018-07-23T06:44:11.955Z,33.53
2018-07-23T06:46:42.726Z,32.60
2018-07-23T06:49:11.510Z,32.40
2018-07-23T06:51:40.225Z,31.60
2018-07-23T06:54:09.299Z,31.65
2018-07-23T06:56:38.399Z,32.45
2018-07-23T06:59:14.836Z,31.93
2018-07-23T07:01:48.830Z,31.47
2018-07-23T07:04:17.725Z,31.25
2018-07-23T07:06:48.741Z,29.25
2018-07-23T07:09:18.113Z,28.92
2018-07-23T07:11:47.203Z,27.87
2018-07-23T07:14:18.768Z,27.22
2018-07-23T07:16:47.585Z,26.55
2018-07-23T07:19:17.059Z,25.92
2018-07-23T07:21:45.835Z,25.80
2018-07-23T07:24:17.608Z,25.97
2018-07-23T07:26:50.235Z,25.57
2018-07-23T07:29:19.349Z,24.82
2018-07-23T07:31:48.125Z,24.90
2018-07-23T07:34:16.745Z,24.77
2018-07-23T07:36:45.612Z,24.20
2018-07-23T07:39:14.576Z,22.87
2018-07-23T07:41:43.357Z,23.50
2018-07-23T07:44:12.215Z,23.98
2018-07-23T07:46:41.368Z,23.23
2018-07-23T07:49:10.335Z,22.97
2018-07-23T07:51:39.605Z,22.05
2018-07-23T07:54:08.650Z,21.68
2018-07-23T07:56:37.510Z,21.17
2018-07-23T07:59:07.114Z,22.10
2018-07-23T08:08:19.987Z,19.52
2018-07-23T08:10:48.966Z,18.15
2018-07-23T08:13:17.718Z,18.35
2018-07-23T08:15:51.731Z,19.10
2018-07-23T08:18:20.543Z,17.87
2018-07-23T08:20:49.290Z,18.20
2018-07-23T08:23:24.392Z,17.23
2018-07-23T08:25:59.480Z,17.80
2018-07-23T08:28:28.456Z,17.52
2018-07-23T08:30:57.141Z,17.42
2018-07-23T08:33:25.855Z,16.97
2018-07-23T08:35:55.942Z,16.80
2018-07-23T08:38:24.632Z,17.07
2018-07-23T08:40:56.968Z,16.45
2018-07-23T08:43:25.781Z,16.93
2018-07-23T08:45:54.554Z,17.20
2018-07-23T08:48:23.448Z,17.37
2018-07-23T08:50:52.201Z,17.07
2018-07-23T08:53:25.043Z,16.73
2018-07-23T08:55:58.970Z,16.65
2018-07-23T08:58:28.140Z,17.07
2018-07-23T09:00:56.779Z,17.40
2018-07-23T09:03:25.444Z,16.50
2018-07-23T09:05:54.063Z,15.40
2018-07-23T09:08:24.126Z,14.95
2018-07-23T09:10:53.008Z,14.85
2018-07-23T09:13:21.863Z,15.60
2018-07-23T09:15:57.450Z,15.28
2018-07-23T09:18:33.410Z,14.90
2018-07-23T09:21:11.788Z,16.20
2018-07-23T09:23:54.955Z,16.23
2018-07-23T09:26:28.170Z,16.23
2018-07-23T09:29:00.712Z,15.85
2018-07-23T09:31:31.292Z,15.55
2018-07-23T09:34:00.048Z,16.05
2018-07-23T09:36:28.784Z,18.37
2018-07-23T09:38:57.426Z,15.10
2018-07-23T09:41:27.447Z,16.53
2018-07-23T09:43:56.111Z,15.98
2018-07-23T09:46:24.761Z,15.20
2018-07-23T09:48:53.473Z,16.27
2018-07-23T09:51:22.184Z,16.05
2018-07-23T09:53:51.304Z,16.60
2018-07-23T09:56:20.076Z,16.02
2018-07-23T09:58:48.856Z,15.90
2018-07-23T10:01:19.242Z,16.57
2018-07-23T10:03:53.202Z,15.55
2018-07-23T10:06:21.982Z,15.83
2018-07-23T10:08:50.568Z,16.67
2018-07-23T10:11:19.358Z,16.77
2018-07-23T10:13:48.240Z,15.60
2018-07-23T10:16:18.483Z,16.13
2018-07-23T10:18:47.312Z,16.47
2018-07-23T10:21:16.086Z,16.23
2018-07-23T10:23:45.692Z,17.10
2018-07-23T10:26:15.087Z,17.82
2018-07-23T10:28:48.900Z,16.90
2018-07-23T10:31:18.009Z,15.70
2018-07-23T10:33:46.780Z,14.35
2018-07-23T10:36:18.295Z,16.97
2018-07-23T10:38:55.418Z,13.97
2018-07-23T10:41:31.543Z,13.23
2018-07-23T10:44:01.884Z,23.87
2018-07-23T10:46:30.663Z,14.90
2018-07-23T10:48:59.338Z,14.23
2018-07-23T10:51:29.044Z,16.57
2018-07-23T10:54:00.425Z,13.80
2018-07-23T10:56:31.758Z,12.95
2018-07-23T10:59:00.463Z,13.78
2018-07-23T11:01:29.153Z,13.38
2018-07-23T11:03:57.822Z,14.53
2018-07-23T11:06:26.964Z,15.63
2018-07-23T11:08:55.913Z,13.05
2018-07-23T11:11:24.615Z,14.40
2018-07-23T11:13:54.482Z,13.72
2018-07-23T11:16:25.869Z,14.87
2018-07-23T11:18:54.538Z,14.50
2018-07-23T11:21:23.234Z,13.78
2018-07-23T11:23:55.400Z,13.20
2018-07-23T11:26:24.305Z,13.43
2018-07-23T11:28:53.086Z,13.33
2018-07-23T11:31:22.575Z,13.45
2018-07-23T11:33:52.839Z,13.43
2018-07-23T11:36:22.423Z,12.28
2018-07-23T11:38:51.038Z,12.28
2018-07-23T11:41:19.891Z,12.78
2018-07-23T11:43:48.697Z,11.03
2018-07-23T11:46:24.982Z,11.53
2018-07-23T11:48:47.803Z,11.33
2018-07-23T11:51:16.621Z,12.05
2018-07-23T11:53:45.503Z,12.35
2018-07-23T11:56:14.232Z,13.25
2018-07-23T11:58:42.917Z,13.35
2018-07-23T12:01:11.676Z,12.98
2018-07-23T12:03:42.923Z,13.10
2018-07-23T12:06:11.751Z,13.32
2018-07-23T12:08:40.543Z,13.53
2018-07-23T12:11:09.327Z,13.20
2018-07-23T12:13:40.632Z,13.27
2018-07-23T12:16:13.578Z,13.00
2018-07-23T12:18:42.620Z,12.37
2018-07-23T12:21:17.448Z,11.63
2018-07-23T12:23:46.261Z,11.73
2018-07-23T12:26:15.079Z,11.15
2018-07-23T12:28:45.727Z,11.67
2018-07-23T12:31:14.510Z,12.05
2018-07-23T12:33:43.334Z,11.68
2018-07-23T12:36:12.059Z,10.98
2018-07-23T12:38:40.787Z,11.50
2018-07-23T12:41:09.574Z,11.83
2018-07-23T12:43:38.251Z,10.78
2018-07-23T12:46:14.850Z,11.30
2018-07-23T12:48:43.774Z,10.75
2018-07-23T12:51:12.635Z,10.70
2018-07-23T12:53:41.341Z,10.97
2018-07-23T12:56:11.323Z,12.07
2018-07-23T12:58:41.661Z,12.33
2018-07-23T13:01:10.850Z,13.00
2018-07-23T13:03:40.523Z,12.60
2018-07-23T13:06:09.763Z,13.25
2018-07-23T13:08:39.667Z,12.70
2018-07-23T13:11:09.504Z,12.10
2018-07-23T13:13:38.575Z,12.50
2018-07-23T13:16:07.866Z,13.28
2018-07-23T13:18:45.995Z,12.10
2018-07-23T13:21:27.429Z,11.00
2018-07-23T13:24:05.964Z,11.60
2018-07-23T13:26:35.390Z,12.60
2018-07-23T13:29:04.105Z,13.45
2018-07-23T13:31:32.777Z,13.20
2018-07-23T13:34:01.461Z,13.40
2018-07-23T13:36:34.578Z,13.28
2018-07-23T13:39:10.139Z,13.58
2018-07-23T13:41:39.477Z,13.43
2018-07-23T13:44:09.040Z,13.58
2018-07-23T13:46:42.820Z,13.60
2018-07-23T13:49:11.526Z,13.35
2018-07-23T13:51:44.102Z,12.65
2018-07-23T13:54:13.885Z,11.30
2018-07-23T13:56:42.648Z,10.82
2018-07-23T13:59:11.423Z,10.93
2018-07-23T14:01:40.220Z,11.53
2018-07-23T14:04:08.970Z,11.75
2018-07-23T14:06:37.919Z,12.33
2018-07-23T14:09:08.618Z,13.18
2018-07-23T14:11:37.332Z,13.30
2018-07-23T14:14:06.408Z,13.10
2018-07-23T14:16:35.303Z,13.15
2018-07-23T14:19:05.231Z,12.10
2018-07-23T14:21:33.895Z,12.90
2018-07-23T14:24:02.628Z,14.15
2018-07-23T14:26:35.787Z,14.68
2018-07-23T14:29:12.164Z,14.43
2018-07-23T14:31:42.160Z,14.07
2018-07-23T14:34:11.109Z,14.33
2018-07-23T14:36:42.982Z,14.28
2018-07-23T14:39:14.212Z,12.97
2018-07-23T14:41:43.192Z,12.30
2018-07-23T14:44:12.138Z,12.10
2018-07-23T14:46:46.499Z,12.13
2018-07-23T14:49:15.498Z,12.37
2018-07-23T14:51:43.975Z,10.78
2018-07-23T14:54:14.136Z,11.50
2018-07-23T14:56:42.830Z,11.83
2018-07-23T14:59:11.645Z,11.57
2018-07-23T15:01:40.467Z,11.50
2018-07-23T15:04:09.229Z,12.47
2018-07-23T15:06:37.913Z,12.90
2018-07-23T15:09:08.120Z,13.62
2018-07-23T15:11:36.828Z,14.95
2018-07-23T15:14:05.877Z,14.57
2018-07-23T15:16:34.651Z,15.63
2018-07-23T15:19:03.623Z,15.60
2018-07-23T15:21:32.319Z,15.83
2018-07-23T15:24:01.222Z,16.10
2018-07-23T15:26:29.952Z,16.33
2018-07-23T15:28:59.458Z,16.15
2018-07-23T15:31:28.230Z,16.80
2018-07-23T15:33:57.081Z,17.83
2018-07-23T15:36:25.868Z,18.73
2018-07-23T15:38:54.578Z,17.63
2018-07-23T15:41:23.326Z,18.70
2018-07-23T15:43:52.149Z,17.07
2018-07-23T15:46:21.362Z,18.37
2018-07-23T15:48:49.987Z,17.70
2018-07-23T15:51:18.815Z,17.77
2018-07-23T15:53:49.428Z,18.05
2018-07-23T15:56:18.105Z,17.50
2018-07-23T15:58:47.788Z,17.50
2018-07-23T16:01:16.532Z,18.57
2018-07-23T16:03:45.358Z,18.27
2018-07-23T16:06:14.160Z,17.92
2018-07-23T16:08:43.007Z,18.65
2018-07-23T16:11:17.953Z,17.92
2018-07-23T16:13:51.448Z,17.70
2018-07-23T16:16:20.309Z,18.55
2018-07-23T16:18:49.302Z,18.10
2018-07-23T16:21:20.948Z,17.50
2018-07-23T16:26:29.819Z,17.52
2018-07-23T16:28:59.105Z,19.32
2018-07-23T16:31:29.432Z,17.52
2018-07-23T16:33:58.224Z,18.07
2018-07-23T16:36:27.128Z,18.60
2018-07-23T16:38:55.853Z,18.85
2018-07-23T16:41:24.813Z,18.43
2018-07-23T16:43:55.967Z,18.27
2018-07-23T16:46:24.837Z,18.17
2018-07-23T16:48:53.711Z,18.80
2018-07-23T16:51:22.504Z,43.85
2018-07-23T16:53:51.434Z,24.45
2018-07-23T16:56:20.685Z,21.50
2018-07-23T16:58:49.945Z,19.07
2018-07-23T17:01:19.058Z,26.93
2018-07-23T17:03:47.788Z,17.15
2018-07-23T17:06:17.642Z,16.60
2018-07-23T17:08:48.549Z,20.88
2018-07-23T17:11:17.706Z,18.15
2018-07-23T17:13:46.742Z,17.43
2018-07-23T17:16:15.514Z,18.12
2018-07-23T17:18:45.909Z,36.75
2018-07-23T17:21:14.647Z,19.10
2018-07-23T17:23:45.013Z,17.92
2018-07-23T17:26:13.903Z,17.23
2018-07-23T17:28:42.722Z,16.60
2018-07-23T17:31:11.594Z,17.32
2018-07-23T17:33:40.430Z,18.90
2018-07-23T17:36:09.263Z,16.73
2018-07-23T17:38:38.073Z,18.32
2018-07-23T17:41:07.016Z,17.30
2018-07-23T17:43:42.462Z,18.37
2018-07-23T17:46:11.431Z,20.23
2018-07-23T17:48:40.304Z,25.30
2018-07-23T17:51:09.041Z,19.70
2018-07-23T17:53:37.867Z,19.95
2018-07-23T17:56:06.731Z,19.55
2018-07-23T17:58:35.450Z,19.92
2018-07-23T18:01:04.278Z,18.98
2018-07-23T18:03:33.056Z,18.27
2018-07-23T18:06:02.318Z,18.07
2018-07-23T18:08:31.088Z,18.17
2018-07-23T18:10:59.857Z,18.23
2018-07-23T18:13:28.702Z,18.20
2018-07-23T18:15:57.523Z,17.07
2018-07-23T18:18:26.261Z,17.37
2018-07-23T18:20:55.017Z,16.50
2018-07-23T18:23:23.886Z,15.50
2018-07-23T18:25:52.629Z,14.93
2018-07-23T18:28:22.341Z,15.10
2018-07-23T18:30:52.405Z,15.57
2018-07-23T18:33:22.340Z,15.13
2018-07-23T18:35:52.217Z,13.50
2018-07-23T18:38:20.962Z,12.60
2018-07-23T18:40:49.833Z,11.43
2018-07-23T18:43:20.146Z,11.77
2018-07-23T18:45:49.073Z,11.50
2018-07-23T18:49:30.367Z,11.85
2018-07-23T18:51:59.704Z,11.28
2018-07-23T18:54:30.330Z,10.82
2018-07-23T18:57:00.169Z,11.57
2018-07-23T18:59:32.853Z,12.03
2018-07-23T19:02:02.901Z,11.80
2018-07-23T19:04:31.818Z,19.87
2018-07-23T19:07:00.719Z,13.30
2018-07-23T19:09:30.139Z,11.63
2018-07-23T19:11:59.612Z,10.90
2018-07-23T19:14:28.336Z,12.68
2018-07-23T19:16:58.382Z,16.70
2018-07-23T19:19:27.394Z,13.03
2018-07-23T19:21:56.270Z,11.60
2018-07-23T19:24:25.188Z,9.60
2018-07-23T19:26:53.950Z,9.18
2018-07-23T19:29:22.937Z,9.90
2018-07-23T19:31:51.798Z,10.40
2018-07-23T19:34:20.571Z,10.50
2018-07-23T19:36:49.617Z,12.07
2018-07-23T19:39:19.603Z,12.60
2018-07-23T19:41:48.599Z,13.68
2018-07-23T19:44:17.423Z,15.80
2018-07-23T19:46:47.255Z,14.30
2018-07-23T19:49:16.028Z,15.75
2018-07-23T19:51:50.508Z,16.50
2018-07-23T19:54:19.453Z,16.73
2018-07-23T19:56:48.271Z,16.60
2018-07-23T19:59:17.217Z,16.90
2018-07-23T20:01:45.993Z,16.87
2018-07-23T20:04:15.019Z,16.57
2018-07-23T20:06:43.794Z,16.60
2018-07-23T20:09:12.635Z,17.33
2018-07-23T20:11:41.447Z,17.17
2018-07-23T20:14:10.161Z,16.70
2018-07-23T20:16:38.894Z,16.90
2018-07-23T20:19:07.724Z,16.40
2018-07-23T20:21:36.448Z,16.20
2018-07-23T20:24:05.326Z,16.15
2018-07-23T20:26:34.129Z,15.32
2018-07-23T20:29:02.923Z,14.85
2018-07-23T20:31:34.097Z,14.83
2018-07-23T20:34:03.490Z,14.27
2018-07-23T20:36:32.338Z,14.10
2018-07-23T20:39:01.198Z,13.85
2018-07-23T20:41:29.918Z,13.88
2018-07-23T20:43:58.661Z,13.30
2018-07-23T20:46:27.486Z,13.70
2018-07-23T20:48:56.416Z,13.35
2018-07-23T20:51:25.167Z,13.50
2018-07-23T20:53:53.991Z,13.30
2018-07-23T20:56:23.034Z,12.97
2018-07-23T20:58:51.908Z,12.50
2018-07-23T21:01:20.727Z,12.28
2018-07-23T21:03:49.778Z,12.25
2018-07-23T21:06:18.621Z,12.03
2018-07-23T21:08:47.374Z,10.08
2018-07-23T21:11:16.113Z,10.82
2018-07-23T21:13:44.963Z,11.20
2018-07-23T21:16:14.831Z,25.27
2018-07-23T21:18:43.659Z,12.57
2018-07-23T21:21:15.771Z,10.32
2018-07-23T21:23:44.577Z,10.68
2018-07-23T21:26:13.230Z,10.10
2018-07-23T21:28:41.931Z,9.35
2018-07-23T21:31:12.156Z,9.15
2018-07-23T21:33:40.838Z,9.60
2018-07-23T21:36:09.531Z,8.70
2018-07-23T21:38:38.317Z,9.18
2018-07-23T21:41:07.160Z,9.25
2018-07-23T21:43:35.887Z,9.08
2018-07-23T21:46:04.613Z,9.13
2018-07-23T21:48:34.740Z,9.23
2018-07-23T21:51:03.631Z,8.83
2018-07-23T21:53:32.583Z,8.83
2018-07-23T21:56:01.346Z,9.20
2018-07-23T21:58:30.094Z,9.10
2018-07-23T22:00:58.949Z,9.20
2018-07-23T22:03:27.846Z,8.43
2018-07-23T22:05:56.567Z,8.60
2018-07-23T22:08:25.571Z,8.30
2018-07-23T22:10:54.277Z,8.05
2018-07-23T22:13:25.607Z,8.45
2018-07-23T22:15:54.400Z,8.00
2018-07-23T22:18:23.191Z,7.85
2018-07-23T22:20:51.950Z,8.13
2018-07-23T22:23:20.638Z,8.25
2018-07-23T22:25:49.332Z,8.58
2018-07-23T22:28:18.755Z,8.43
2018-07-23T22:30:47.412Z,8.90
2018-07-23T22:33:16.645Z,9.35
2018-07-23T22:35:46.060Z,8.93
2018-07-23T22:38:14.800Z,9.05
2018-07-23T22:40:47.002Z,8.98
2018-07-23T22:43:15.787Z,9.70
2018-07-23T22:45:45.055Z,9.18
2018-07-23T22:48:13.961Z,9.05
2018-07-23T22:50:44.686Z,9.83
2018-07-23T22:53:13.469Z,9.50
2018-07-23T22:55:42.277Z,9.78
2018-07-23T22:58:11.093Z,9.85
2018-07-23T23:00:39.722Z,10.08
2018-07-23T23:03:10.375Z,9.35
2018-07-23T23:05:39.108Z,10.08
2018-07-23T23:08:07.820Z,9.50
2018-07-23T23:10:36.547Z,10.20
2018-07-23T23:13:05.414Z,10.20
2018-07-23T23:15:34.646Z,10.08
2018-07-23T23:18:03.300Z,10.82
2018-07-23T23:20:32.054Z,10.43
2018-07-23T23:23:00.958Z,10.23
2018-07-23T23:25:29.833Z,10.58
2018-07-23T23:27:58.614Z,10.50
2018-07-23T23:30:27.170Z,10.37
2018-07-23T23:32:55.977Z,11.12
2018-07-23T23:35:24.684Z,11.60
2018-07-23T23:37:53.376Z,10.65
2018-07-23T23:40:22.112Z,11.75
2018-07-23T23:42:50.878Z,10.60
2018-07-23T23:45:20.358Z,11.10
2018-07-23T23:47:49.164Z,11.38
2018-07-23T23:50:17.841Z,11.25
2018-07-23T23:52:46.542Z,11.67
2018-07-23T23:55:15.355Z,11.97
2018-07-23T23:57:44.123Z,12.15
